sensor_id;sensor_type;location;lat;lon;timestamp;temperature;humidity
56256;DHT22;57229;51.432;-2.598;2022-10-17T00:00:52;17.90;98.10
56256;DHT22;57229;51.432;-2.598;2022-10-17T00:06:44;17.90;98.20
56256;DHT22;57229;51.432;-2.598;2022-10-17T00:09:10;17.90;98.10
56256;DHT22;57229;51.432;-2.598;2022-10-17T00:11:45;17.90;98.10
56256;DHT22;57229;51.432;-2.598;2022-10-17T00:14:34;17.90;98.30
56256;DHT22;57229;51.432;-2.598;2022-10-17T00:17:21;17.90;98.90
56256;DHT22;57229;51.432;-2.598;2022-10-17T00:20:22;17.90;99.20
56256;DHT22;57229;51.432;-2.598;2022-10-17T00:22:48;17.90;99.10
56256;DHT22;57229;51.432;-2.598;2022-10-17T00:25:14;17.90;99.00
56256;DHT22;57229;51.432;-2.598;2022-10-17T00:27:41;18.00;99.00
56256;DHT22;57229;51.432;-2.598;2022-10-17T00:31:02;18.00;98.90
56256;DHT22;57229;51.432;-2.598;2022-10-17T00:33:21;18.00;98.80
56256;DHT22;57229;51.432;-2.598;2022-10-17T00:35:46;18.00;98.80
56256;DHT22;57229;51.432;-2.598;2022-10-17T00:38:37;17.90;98.70
56256;DHT22;57229;51.432;-2.598;2022-10-17T00:41:03;17.90;98.70
56256;DHT22;57229;51.432;-2.598;2022-10-17T00:47:34;18.00;98.70
56256;DHT22;57229;51.432;-2.598;2022-10-17T00:50:00;17.90;98.70
56256;DHT22;57229;51.432;-2.598;2022-10-17T00:52:28;18.00;98.70
56256;DHT22;57229;51.432;-2.598;2022-10-17T00:55:11;18.00;98.70
56256;DHT22;57229;51.432;-2.598;2022-10-17T00:57:38;18.00;98.70
56256;DHT22;57229;51.432;-2.598;2022-10-17T01:00:28;18.00;98.70
56256;DHT22;57229;51.432;-2.598;2022-10-17T01:02:54;17.90;98.70
56256;DHT22;57229;51.432;-2.598;2022-10-17T01:05:55;17.90;98.70
56256;DHT22;57229;51.432;-2.598;2022-10-17T01:11:46;17.90;98.60
56256;DHT22;57229;51.432;-2.598;2022-10-17T01:14:36;18.00;98.70
56256;DHT22;57229;51.432;-2.598;2022-10-17T01:17:39;18.00;98.70
56256;DHT22;57229;51.432;-2.598;2022-10-17T01:31:02;18.00;98.60
56256;DHT22;57229;51.432;-2.598;2022-10-17T01:38:49;18.00;98.60
56256;DHT22;57229;51.432;-2.598;2022-10-17T01:41:37;18.00;98.60
56256;DHT22;57229;51.432;-2.598;2022-10-17T01:44:53;17.90;98.50
56256;DHT22;57229;51.432;-2.598;2022-10-17T01:47:05;18.00;98.60
56256;DHT22;57229;51.432;-2.598;2022-10-17T01:49:34;17.90;98.60
56256;DHT22;57229;51.432;-2.598;2022-10-17T01:52:11;18.00;98.60
56256;DHT22;57229;51.432;-2.598;2022-10-17T01:54:43;18.00;98.60
56256;DHT22;57229;51.432;-2.598;2022-10-17T01:57:15;17.90;98.60
56256;DHT22;57229;51.432;-2.598;2022-10-17T02:00:02;17.90;98.60
56256;DHT22;57229;51.432;-2.598;2022-10-17T02:02:28;18.00;98.70
56256;DHT22;57229;51.432;-2.598;2022-10-17T02:04:54;18.00;98.60
56256;DHT22;57229;51.432;-2.598;2022-10-17T02:07:24;17.90;98.60
56256;DHT22;57229;51.432;-2.598;2022-10-17T02:09:50;18.00;98.70
56256;DHT22;57229;51.432;-2.598;2022-10-17T02:21:43;18.00;98.70
56256;DHT22;57229;51.432;-2.598;2022-10-17T02:35:19;17.90;98.80
56256;DHT22;57229;51.432;-2.598;2022-10-17T02:37:46;18.00;98.80
56256;DHT22;57229;51.432;-2.598;2022-10-17T02:40:24;17.90;98.70
56256;DHT22;57229;51.432;-2.598;2022-10-17T02:42:51;17.90;98.80
56256;DHT22;57229;51.432;-2.598;2022-10-17T02:45:18;17.90;98.80
56256;DHT22;57229;51.432;-2.598;2022-10-17T02:47:58;18.00;98.80
56256;DHT22;57229;51.432;-2.598;2022-10-17T02:50:41;17.90;98.70
56256;DHT22;57229;51.432;-2.598;2022-10-17T02:53:14;17.90;98.60
56256;DHT22;57229;51.432;-2.598;2022-10-17T02:55:51;17.90;98.60
56256;DHT22;57229;51.432;-2.598;2022-10-17T02:58:22;17.90;98.60
56256;DHT22;57229;51.432;-2.598;2022-10-17T03:00:51;17.90;98.60
56256;DHT22;57229;51.432;-2.598;2022-10-17T03:03:25;17.90;98.50
56256;DHT22;57229;51.432;-2.598;2022-10-17T03:05:52;17.90;98.50
56256;DHT22;57229;51.432;-2.598;2022-10-17T03:08:18;17.90;98.50
56256;DHT22;57229;51.432;-2.598;2022-10-17T03:10:44;17.90;98.50
56256;DHT22;57229;51.432;-2.598;2022-10-17T03:13:10;17.90;98.50
56256;DHT22;57229;51.432;-2.598;2022-10-17T03:15:36;17.90;98.40
56256;DHT22;57229;51.432;-2.598;2022-10-17T03:18:02;17.90;98.40
56256;DHT22;57229;51.432;-2.598;2022-10-17T03:20:31;17.90;98.40
56256;DHT22;57229;51.432;-2.598;2022-10-17T03:23:04;17.90;98.40
56256;DHT22;57229;51.432;-2.598;2022-10-17T03:25:30;17.90;98.40
56256;DHT22;57229;51.432;-2.598;2022-10-17T03:27:59;17.90;98.40
56256;DHT22;57229;51.432;-2.598;2022-10-17T03:30:27;17.90;98.40
56256;DHT22;57229;51.432;-2.598;2022-10-17T03:32:52;17.90;98.40
56256;DHT22;57229;51.432;-2.598;2022-10-17T03:35:18;17.90;98.40
56256;DHT22;57229;51.432;-2.598;2022-10-17T03:37:47;17.90;98.40
56256;DHT22;57229;51.432;-2.598;2022-10-17T03:40:13;17.90;98.40
56256;DHT22;57229;51.432;-2.598;2022-10-17T03:42:38;17.90;98.40
56256;DHT22;57229;51.432;-2.598;2022-10-17T03:45:14;17.90;98.40
56256;DHT22;57229;51.432;-2.598;2022-10-17T03:47:40;17.90;98.40
56256;DHT22;57229;51.432;-2.598;2022-10-17T03:50:06;17.90;98.40
56256;DHT22;57229;51.432;-2.598;2022-10-17T03:52:32;17.80;98.30
56256;DHT22;57229;51.432;-2.598;2022-10-17T03:55:01;17.80;98.30
56256;DHT22;57229;51.432;-2.598;2022-10-17T03:57:26;18.00;98.40
56256;DHT22;57229;51.432;-2.598;2022-10-17T03:59:52;17.80;98.30
56256;DHT22;57229;51.432;-2.598;2022-10-17T04:02:21;17.80;98.30
56256;DHT22;57229;51.432;-2.598;2022-10-17T04:04:46;17.80;98.30
56256;DHT22;57229;51.432;-2.598;2022-10-17T04:07:12;17.80;98.30
56256;DHT22;57229;51.432;-2.598;2022-10-17T04:09:38;17.80;98.30
56256;DHT22;57229;51.432;-2.598;2022-10-17T04:12:07;17.80;98.40
56256;DHT22;57229;51.432;-2.598;2022-10-17T04:14:33;17.80;98.30
56256;DHT22;57229;51.432;-2.598;2022-10-17T04:17:02;17.80;98.30
56256;DHT22;57229;51.432;-2.598;2022-10-17T04:19:27;17.80;98.30
56256;DHT22;57229;51.432;-2.598;2022-10-17T04:21:53;17.80;98.30
56256;DHT22;57229;51.432;-2.598;2022-10-17T04:24:19;17.80;98.40
56256;DHT22;57229;51.432;-2.598;2022-10-17T04:26:49;17.80;98.40
56256;DHT22;57229;51.432;-2.598;2022-10-17T04:29:15;17.80;98.40
56256;DHT22;57229;51.432;-2.598;2022-10-17T04:31:41;17.80;98.40
56256;DHT22;57229;51.432;-2.598;2022-10-17T04:34:07;17.80;98.40
56256;DHT22;57229;51.432;-2.598;2022-10-17T04:36:33;17.80;98.40
56256;DHT22;57229;51.432;-2.598;2022-10-17T04:38:59;17.70;98.40
56256;DHT22;57229;51.432;-2.598;2022-10-17T04:44:31;17.70;98.40
56256;DHT22;57229;51.432;-2.598;2022-10-17T04:46:58;17.70;98.40
56256;DHT22;57229;51.432;-2.598;2022-10-17T04:49:24;17.70;98.40
56256;DHT22;57229;51.432;-2.598;2022-10-17T04:51:50;17.70;98.40
56256;DHT22;57229;51.432;-2.598;2022-10-17T04:54:16;17.70;98.40
56256;DHT22;57229;51.432;-2.598;2022-10-17T04:56:45;17.70;98.40
56256;DHT22;57229;51.432;-2.598;2022-10-17T04:59:11;17.70;98.50
56256;DHT22;57229;51.432;-2.598;2022-10-17T05:01:37;17.70;98.40
56256;DHT22;57229;51.432;-2.598;2022-10-17T05:04:03;17.70;98.50
56256;DHT22;57229;51.432;-2.598;2022-10-17T05:06:36;17.70;98.50
56256;DHT22;57229;51.432;-2.598;2022-10-17T05:09:08;17.70;98.50
56256;DHT22;57229;51.432;-2.598;2022-10-17T05:11:34;17.70;98.50
56256;DHT22;57229;51.432;-2.598;2022-10-17T05:14:01;17.70;98.50
56256;DHT22;57229;51.432;-2.598;2022-10-17T05:16:49;17.60;98.50
56256;DHT22;57229;51.432;-2.598;2022-10-17T05:19:13;17.60;98.50
56256;DHT22;57229;51.432;-2.598;2022-10-17T05:21:40;17.60;98.50
56256;DHT22;57229;51.432;-2.598;2022-10-17T05:24:41;17.60;98.50
56256;DHT22;57229;51.432;-2.598;2022-10-17T05:27:22;17.60;98.50
56256;DHT22;57229;51.432;-2.598;2022-10-17T05:30:00;17.60;98.50
56256;DHT22;57229;51.432;-2.598;2022-10-17T05:32:43;17.60;98.50
56256;DHT22;57229;51.432;-2.598;2022-10-17T05:35:09;17.60;98.50
56256;DHT22;57229;51.432;-2.598;2022-10-17T05:37:38;17.60;98.50
56256;DHT22;57229;51.432;-2.598;2022-10-17T05:40:05;17.60;98.50
56256;DHT22;57229;51.432;-2.598;2022-10-17T05:42:31;17.60;98.60
56256;DHT22;57229;51.432;-2.598;2022-10-17T05:45:00;17.60;98.60
56256;DHT22;57229;51.432;-2.598;2022-10-17T05:47:35;17.50;98.50
56256;DHT22;57229;51.432;-2.598;2022-10-17T05:50:10;17.50;98.60
56256;DHT22;57229;51.432;-2.598;2022-10-17T05:52:42;17.60;98.60
56256;DHT22;57229;51.432;-2.598;2022-10-17T05:55:16;17.60;98.60
56256;DHT22;57229;51.432;-2.598;2022-10-17T05:57:47;17.20;98.60
56256;DHT22;57229;51.432;-2.598;2022-10-17T06:00:20;17.50;98.60
56256;DHT22;57229;51.432;-2.598;2022-10-17T06:03:13;17.50;98.60
56256;DHT22;57229;51.432;-2.598;2022-10-17T06:05:38;17.50;98.60
56256;DHT22;57229;51.432;-2.598;2022-10-17T06:08:10;17.50;98.60
56256;DHT22;57229;51.432;-2.598;2022-10-17T06:11:23;17.50;98.60
56256;DHT22;57229;51.432;-2.598;2022-10-17T06:14:03;17.50;98.60
56256;DHT22;57229;51.432;-2.598;2022-10-17T06:16:49;17.50;98.70
56256;DHT22;57229;51.432;-2.598;2022-10-17T06:19:15;17.50;98.70
56256;DHT22;57229;51.432;-2.598;2022-10-17T06:21:41;17.50;98.70
56256;DHT22;57229;51.432;-2.598;2022-10-17T06:24:06;17.40;98.70
56256;DHT22;57229;51.432;-2.598;2022-10-17T06:26:32;17.40;98.70
56256;DHT22;57229;51.432;-2.598;2022-10-17T06:29:01;17.40;98.70
56256;DHT22;57229;51.432;-2.598;2022-10-17T06:31:32;17.50;98.70
56256;DHT22;57229;51.432;-2.598;2022-10-17T06:33:58;17.50;98.70
56256;DHT22;57229;51.432;-2.598;2022-10-17T06:36:24;17.40;98.70
56256;DHT22;57229;51.432;-2.598;2022-10-17T06:38:50;17.40;98.70
56256;DHT22;57229;51.432;-2.598;2022-10-17T06:41:16;17.50;98.80
56256;DHT22;57229;51.432;-2.598;2022-10-17T06:43:47;17.40;98.70
56256;DHT22;57229;51.432;-2.598;2022-10-17T06:46:14;17.50;98.80
56256;DHT22;57229;51.432;-2.598;2022-10-17T06:48:40;17.40;98.70
56256;DHT22;57229;51.432;-2.598;2022-10-17T06:51:06;17.40;98.70
56256;DHT22;57229;51.432;-2.598;2022-10-17T06:53:34;17.40;98.70
56256;DHT22;57229;51.432;-2.598;2022-10-17T06:56:01;17.40;98.70
56256;DHT22;57229;51.432;-2.598;2022-10-17T06:58:33;17.40;98.70
56256;DHT22;57229;51.432;-2.598;2022-10-17T07:01:08;17.40;98.70
56256;DHT22;57229;51.432;-2.598;2022-10-17T07:03:35;17.40;98.70
56256;DHT22;57229;51.432;-2.598;2022-10-17T07:06:01;17.40;98.70
56256;DHT22;57229;51.432;-2.598;2022-10-17T07:08:26;17.40;98.70
56256;DHT22;57229;51.432;-2.598;2022-10-17T07:10:53;17.40;98.70
56256;DHT22;57229;51.432;-2.598;2022-10-17T07:13:19;17.40;98.70
56256;DHT22;57229;51.432;-2.598;2022-10-17T07:15:45;17.40;98.70
56256;DHT22;57229;51.432;-2.598;2022-10-17T07:18:11;17.40;98.70
56256;DHT22;57229;51.432;-2.598;2022-10-17T07:20:37;17.40;98.70
56256;DHT22;57229;51.432;-2.598;2022-10-17T07:23:03;17.50;98.70
56256;DHT22;57229;51.432;-2.598;2022-10-17T07:25:29;17.40;98.60
56256;DHT22;57229;51.432;-2.598;2022-10-17T07:27:55;17.50;98.60
56256;DHT22;57229;51.432;-2.598;2022-10-17T07:30:21;17.40;98.60
56256;DHT22;57229;51.432;-2.598;2022-10-17T07:32:47;17.40;98.60
56256;DHT22;57229;51.432;-2.598;2022-10-17T07:35:13;17.40;98.60
56256;DHT22;57229;51.432;-2.598;2022-10-17T07:37:39;17.50;98.60
56256;DHT22;57229;51.432;-2.598;2022-10-17T07:40:06;17.50;98.50
56256;DHT22;57229;51.432;-2.598;2022-10-17T07:42:35;17.50;98.50
56256;DHT22;57229;51.432;-2.598;2022-10-17T07:45:01;17.50;98.50
56256;DHT22;57229;51.432;-2.598;2022-10-17T07:47:26;17.50;98.50
56256;DHT22;57229;51.432;-2.598;2022-10-17T07:49:52;17.50;98.40
56256;DHT22;57229;51.432;-2.598;2022-10-17T07:52:18;17.50;98.40
56256;DHT22;57229;51.432;-2.598;2022-10-17T07:54:43;17.50;98.40
56256;DHT22;57229;51.432;-2.598;2022-10-17T07:57:09;17.50;98.40
56256;DHT22;57229;51.432;-2.598;2022-10-17T07:59:36;17.50;98.40
56256;DHT22;57229;51.432;-2.598;2022-10-17T08:02:03;17.50;98.40
56256;DHT22;57229;51.432;-2.598;2022-10-17T08:04:29;17.50;98.40
56256;DHT22;57229;51.432;-2.598;2022-10-17T08:06:54;17.60;98.40
56256;DHT22;57229;51.432;-2.598;2022-10-17T08:09:20;17.50;98.40
56256;DHT22;57229;51.432;-2.598;2022-10-17T08:11:46;17.50;98.40
56256;DHT22;57229;51.432;-2.598;2022-10-17T08:14:13;17.50;98.40
56256;DHT22;57229;51.432;-2.598;2022-10-17T08:16:41;17.60;98.40
56256;DHT22;57229;51.432;-2.598;2022-10-17T08:19:07;17.50;98.30
56256;DHT22;57229;51.432;-2.598;2022-10-17T08:21:36;17.50;98.30
56256;DHT22;57229;51.432;-2.598;2022-10-17T08:24:02;17.50;98.30
56256;DHT22;57229;51.432;-2.598;2022-10-17T08:26:28;17.50;98.30
56256;DHT22;57229;51.432;-2.598;2022-10-17T08:28:55;17.50;98.40
56256;DHT22;57229;51.432;-2.598;2022-10-17T08:31:21;17.60;98.40
56256;DHT22;57229;51.432;-2.598;2022-10-17T08:34:09;17.60;98.30
56256;DHT22;57229;51.432;-2.598;2022-10-17T08:36:35;17.60;98.30
56256;DHT22;57229;51.432;-2.598;2022-10-17T08:39:01;17.60;98.30
56256;DHT22;57229;51.432;-2.598;2022-10-17T08:44:14;17.60;98.20
56256;DHT22;57229;51.432;-2.598;2022-10-17T08:47:10;17.60;98.20
56256;DHT22;57229;51.432;-2.598;2022-10-17T08:49:48;17.70;98.20
56256;DHT22;57229;51.432;-2.598;2022-10-17T08:55:37;17.70;98.10
56256;DHT22;57229;51.432;-2.598;2022-10-17T08:58:12;17.70;98.10
56256;DHT22;57229;51.432;-2.598;2022-10-17T09:00:42;17.70;98.10
56256;DHT22;57229;51.432;-2.598;2022-10-17T09:03:49;17.80;98.10
56256;DHT22;57229;51.432;-2.598;2022-10-17T09:06:36;17.80;98.00
56256;DHT22;57229;51.432;-2.598;2022-10-17T09:11:57;18.00;98.00
56256;DHT22;57229;51.432;-2.598;2022-10-17T09:15:01;18.50;97.40
56256;DHT22;57229;51.432;-2.598;2022-10-17T09:17:54;19.10;96.30
56256;DHT22;57229;51.432;-2.598;2022-10-17T09:23:20;20.20;94.10
56256;DHT22;57229;51.432;-2.598;2022-10-17T09:36:47;21.60;91.50
56256;DHT22;57229;51.432;-2.598;2022-10-17T09:39:16;21.90;91.00
56256;DHT22;57229;51.432;-2.598;2022-10-17T09:41:49;22.00;90.70
56256;DHT22;57229;51.432;-2.598;2022-10-17T09:49:46;22.40;90.00
56256;DHT22;57229;51.432;-2.598;2022-10-17T09:55:44;22.60;89.20
56256;DHT22;57229;51.432;-2.598;2022-10-17T09:58:15;22.70;88.80
56256;DHT22;57229;51.432;-2.598;2022-10-17T10:00:43;22.80;88.30
56256;DHT22;57229;51.432;-2.598;2022-10-17T10:05:38;23.00;88.00
56256;DHT22;57229;51.432;-2.598;2022-10-17T10:08:18;23.00;87.60
56256;DHT22;57229;51.432;-2.598;2022-10-17T10:10:44;23.10;87.40
56256;DHT22;57229;51.432;-2.598;2022-10-17T10:15:47;23.30;87.40
56256;DHT22;57229;51.432;-2.598;2022-10-17T10:18:35;23.30;86.40
56256;DHT22;57229;51.432;-2.598;2022-10-17T10:21:06;23.50;86.60
56256;DHT22;57229;51.432;-2.598;2022-10-17T10:23:33;23.70;85.60
56256;DHT22;57229;51.432;-2.598;2022-10-17T10:28:39;24.00;84.20
56256;DHT22;57229;51.432;-2.598;2022-10-17T10:31:09;24.20;83.90
56256;DHT22;57229;51.432;-2.598;2022-10-17T10:33:44;24.30;83.40
56256;DHT22;57229;51.432;-2.598;2022-10-17T10:36:10;24.40;83.30
56256;DHT22;57229;51.432;-2.598;2022-10-17T10:38:38;24.60;82.80
56256;DHT22;57229;51.432;-2.598;2022-10-17T10:41:08;24.70;82.50
56256;DHT22;57229;51.432;-2.598;2022-10-17T10:43:46;24.90;82.10
56256;DHT22;57229;51.432;-2.598;2022-10-17T10:46:42;25.00;81.70
56256;DHT22;57229;51.432;-2.598;2022-10-17T10:49:36;25.20;81.40
56256;DHT22;57229;51.432;-2.598;2022-10-17T10:52:29;25.30;81.40
56256;DHT22;57229;51.432;-2.598;2022-10-17T10:55:19;25.40;81.10
56256;DHT22;57229;51.432;-2.598;2022-10-17T10:57:48;25.30;81.50
56256;DHT22;57229;51.432;-2.598;2022-10-17T11:00:19;25.30;81.70
56256;DHT22;57229;51.432;-2.598;2022-10-17T11:02:58;25.20;82.30
56256;DHT22;57229;51.432;-2.598;2022-10-17T11:12:40;25.70;80.10
56256;DHT22;57229;51.432;-2.598;2022-10-17T11:23:18;25.50;81.70
56256;DHT22;57229;51.432;-2.598;2022-10-17T11:25:49;25.20;83.30
56256;DHT22;57229;51.432;-2.598;2022-10-17T11:28:20;24.90;83.80
56256;DHT22;57229;51.432;-2.598;2022-10-17T11:31:03;25.00;82.70
56256;DHT22;57229;51.432;-2.598;2022-10-17T11:36:09;23.70;86.10
56256;DHT22;57229;51.432;-2.598;2022-10-17T11:38:46;23.30;86.90
56256;DHT22;57229;51.432;-2.598;2022-10-17T11:41:41;23.00;88.00
56256;DHT22;57229;51.432;-2.598;2022-10-17T11:46:44;22.60;88.80
56256;DHT22;57229;51.432;-2.598;2022-10-17T11:49:23;22.20;89.80
56256;DHT22;57229;51.432;-2.598;2022-10-17T11:52:00;22.00;90.20
56256;DHT22;57229;51.432;-2.598;2022-10-17T11:57:39;21.50;90.80
56256;DHT22;57229;51.432;-2.598;2022-10-17T12:05:14;21.40;91.30
56256;DHT22;57229;51.432;-2.598;2022-10-17T12:10:44;21.50;91.30
56256;DHT22;57229;51.432;-2.598;2022-10-17T12:13:52;21.50;91.30
56256;DHT22;57229;51.432;-2.598;2022-10-17T12:21:55;21.90;90.80
56256;DHT22;57229;51.432;-2.598;2022-10-17T12:24:38;21.90;90.70
56256;DHT22;57229;51.432;-2.598;2022-10-17T12:27:35;21.90;90.60
56256;DHT22;57229;51.432;-2.598;2022-10-17T12:30:15;21.90;90.60
56256;DHT22;57229;51.432;-2.598;2022-10-17T12:35:37;21.90;90.80
56256;DHT22;57229;51.432;-2.598;2022-10-17T12:46:00;21.90;90.80
56256;DHT22;57229;51.432;-2.598;2022-10-17T12:51:11;21.80;90.70
56256;DHT22;57229;51.432;-2.598;2022-10-17T12:54:14;21.80;90.80
56256;DHT22;57229;51.432;-2.598;2022-10-17T12:56:45;21.80;90.80
56256;DHT22;57229;51.432;-2.598;2022-10-17T12:59:26;21.80;90.80
56256;DHT22;57229;51.432;-2.598;2022-10-17T13:01:56;21.80;91.20
56256;DHT22;57229;51.432;-2.598;2022-10-17T13:04:23;21.80;90.80
56256;DHT22;57229;51.432;-2.598;2022-10-17T13:06:57;21.80;90.80
56256;DHT22;57229;51.432;-2.598;2022-10-17T13:11:52;22.00;90.70
56256;DHT22;57229;51.432;-2.598;2022-10-17T13:14:20;22.00;90.70
56256;DHT22;57229;51.432;-2.598;2022-10-17T13:16:51;22.10;90.60
56256;DHT22;57229;51.432;-2.598;2022-10-17T13:19:25;22.20;90.40
56256;DHT22;57229;51.432;-2.598;2022-10-17T13:21:59;22.30;90.20
56256;DHT22;57229;51.432;-2.598;2022-10-17T13:24:33;22.20;90.30
56256;DHT22;57229;51.432;-2.598;2022-10-17T13:27:00;22.10;90.30
56256;DHT22;57229;51.432;-2.598;2022-10-17T13:29:27;22.00;90.50
56256;DHT22;57229;51.432;-2.598;2022-10-17T13:32:02;22.00;90.60
56256;DHT22;57229;51.432;-2.598;2022-10-17T13:34:29;22.10;90.50
56256;DHT22;57229;51.432;-2.598;2022-10-17T13:37:09;22.20;90.30
56256;DHT22;57229;51.432;-2.598;2022-10-17T13:39:41;22.20;90.20
56256;DHT22;57229;51.432;-2.598;2022-10-17T13:42:24;22.30;90.20
56256;DHT22;57229;51.432;-2.598;2022-10-17T13:44:51;22.30;90.10
56256;DHT22;57229;51.432;-2.598;2022-10-17T13:47:29;22.40;90.00
56256;DHT22;57229;51.432;-2.598;2022-10-17T13:49:57;22.30;90.00
56256;DHT22;57229;51.432;-2.598;2022-10-17T13:52:26;22.30;90.10
56256;DHT22;57229;51.432;-2.598;2022-10-17T13:54:53;22.30;90.10
56256;DHT22;57229;51.432;-2.598;2022-10-17T13:57:26;22.20;90.20
56256;DHT22;57229;51.432;-2.598;2022-10-17T13:59:57;22.20;90.20
56256;DHT22;57229;51.432;-2.598;2022-10-17T14:02:29;22.20;90.20
56256;DHT22;57229;51.432;-2.598;2022-10-17T14:10:25;22.20;90.20
56256;DHT22;57229;51.432;-2.598;2022-10-17T14:12:52;22.00;90.30
56256;DHT22;57229;51.432;-2.598;2022-10-17T14:15:20;21.90;90.40
56256;DHT22;57229;51.432;-2.598;2022-10-17T14:17:57;21.90;90.60
56256;DHT22;57229;51.432;-2.598;2022-10-17T14:20:24;21.80;90.70
56256;DHT22;57229;51.432;-2.598;2022-10-17T14:22:53;21.70;90.80
56256;DHT22;57229;51.432;-2.598;2022-10-17T14:25:36;21.70;90.80
56256;DHT22;57229;51.432;-2.598;2022-10-17T14:30:41;21.60;90.90
56256;DHT22;57229;51.432;-2.598;2022-10-17T14:33:14;21.50;91.10
56256;DHT22;57229;51.432;-2.598;2022-10-17T14:35:51;21.30;91.20
56256;DHT22;57229;51.432;-2.598;2022-10-17T14:38:18;21.20;91.40
56256;DHT22;57229;51.432;-2.598;2022-10-17T14:41:02;21.10;91.50
56256;DHT22;57229;51.432;-2.598;2022-10-17T14:43:30;21.10;91.70
56256;DHT22;57229;51.432;-2.598;2022-10-17T14:45:58;21.00;91.80
56256;DHT22;57229;51.432;-2.598;2022-10-17T14:48:25;21.00;91.80
56256;DHT22;57229;51.432;-2.598;2022-10-17T14:51:15;20.90;91.90
56256;DHT22;57229;51.432;-2.598;2022-10-17T14:53:43;20.90;92.00
56256;DHT22;57229;51.432;-2.598;2022-10-17T14:56:33;20.80;92.10
56256;DHT22;57229;51.432;-2.598;2022-10-17T14:58:59;20.70;92.20
56256;DHT22;57229;51.432;-2.598;2022-10-17T15:01:27;20.70;92.40
56256;DHT22;57229;51.432;-2.598;2022-10-17T15:03:53;20.70;92.40
56256;DHT22;57229;51.432;-2.598;2022-10-17T15:06:28;20.60;92.50
56256;DHT22;57229;51.432;-2.598;2022-10-17T15:08:54;20.60;92.50
56256;DHT22;57229;51.432;-2.598;2022-10-17T15:11:19;20.50;92.60
56256;DHT22;57229;51.432;-2.598;2022-10-17T15:13:45;20.50;92.60
56256;DHT22;57229;51.432;-2.598;2022-10-17T15:16:32;20.50;92.70
56256;DHT22;57229;51.432;-2.598;2022-10-17T15:18:57;20.50;92.80
56256;DHT22;57229;51.432;-2.598;2022-10-17T15:21:24;20.50;92.80
56256;DHT22;57229;51.432;-2.598;2022-10-17T15:23:50;20.40;92.80
56256;DHT22;57229;51.432;-2.598;2022-10-17T15:26:28;20.40;92.90
56256;DHT22;57229;51.432;-2.598;2022-10-17T15:28:55;20.40;92.90
56256;DHT22;57229;51.432;-2.598;2022-10-17T15:31:22;20.50;92.80
56256;DHT22;57229;51.432;-2.598;2022-10-17T15:33:48;20.60;92.80
56256;DHT22;57229;51.432;-2.598;2022-10-17T15:36:22;20.70;92.60
56256;DHT22;57229;51.432;-2.598;2022-10-17T15:38:50;20.80;92.40
56256;DHT22;57229;51.432;-2.598;2022-10-17T15:41:17;20.90;92.30
56256;DHT22;57229;51.432;-2.598;2022-10-17T15:43:43;20.90;92.10
56256;DHT22;57229;51.432;-2.598;2022-10-17T15:46:12;21.10;92.10
56256;DHT22;57229;51.432;-2.598;2022-10-17T15:48:38;21.10;91.90
56256;DHT22;57229;51.432;-2.598;2022-10-17T15:51:05;21.20;91.90
56256;DHT22;57229;51.432;-2.598;2022-10-17T15:53:30;21.20;91.70
56256;DHT22;57229;51.432;-2.598;2022-10-17T15:55:57;21.30;91.70
56256;DHT22;57229;51.432;-2.598;2022-10-17T15:58:23;21.30;91.60
56256;DHT22;57229;51.432;-2.598;2022-10-17T16:00:49;21.30;91.60
56256;DHT22;57229;51.432;-2.598;2022-10-17T16:03:14;21.30;91.60
56256;DHT22;57229;51.432;-2.598;2022-10-17T16:05:40;21.30;91.60
56256;DHT22;57229;51.432;-2.598;2022-10-17T16:08:06;21.30;91.60
56256;DHT22;57229;51.432;-2.598;2022-10-17T16:10:32;21.30;91.50
56256;DHT22;57229;51.432;-2.598;2022-10-17T16:12:58;21.30;91.60
56256;DHT22;57229;51.432;-2.598;2022-10-17T16:15:26;21.30;91.60
56256;DHT22;57229;51.432;-2.598;2022-10-17T16:17:54;21.30;91.60
56256;DHT22;57229;51.432;-2.598;2022-10-17T16:20:21;21.20;91.60
56256;DHT22;57229;51.432;-2.598;2022-10-17T16:22:47;21.20;91.70
56256;DHT22;57229;51.432;-2.598;2022-10-17T16:25:20;21.10;91.70
56256;DHT22;57229;51.432;-2.598;2022-10-17T16:27:47;21.10;91.80
56256;DHT22;57229;51.432;-2.598;2022-10-17T16:30:14;21.10;91.80
56256;DHT22;57229;51.432;-2.598;2022-10-17T16:32:40;21.10;91.90
56256;DHT22;57229;51.432;-2.598;2022-10-17T16:35:06;21.00;91.90
56256;DHT22;57229;51.432;-2.598;2022-10-17T16:37:32;21.00;92.00
56256;DHT22;57229;51.432;-2.598;2022-10-17T16:40:00;20.90;92.00
56256;DHT22;57229;51.432;-2.598;2022-10-17T16:42:25;20.80;92.10
56256;DHT22;57229;51.432;-2.598;2022-10-17T16:44:51;20.80;92.20
56256;DHT22;57229;51.432;-2.598;2022-10-17T16:47:17;20.80;92.30
56256;DHT22;57229;51.432;-2.598;2022-10-17T16:49:43;20.60;92.40
56256;DHT22;57229;51.432;-2.598;2022-10-17T16:52:09;20.60;92.50
56256;DHT22;57229;51.432;-2.598;2022-10-17T16:54:35;20.60;92.60
56256;DHT22;57229;51.432;-2.598;2022-10-17T16:57:02;20.50;92.60
56256;DHT22;57229;51.432;-2.598;2022-10-17T16:59:28;20.40;92.80
56256;DHT22;57229;51.432;-2.598;2022-10-17T17:01:53;20.40;92.90
56256;DHT22;57229;51.432;-2.598;2022-10-17T17:04:20;20.30;93.00
56256;DHT22;57229;51.432;-2.598;2022-10-17T17:06:46;20.30;93.10
56256;DHT22;57229;51.432;-2.598;2022-10-17T17:09:12;20.20;93.10
56256;DHT22;57229;51.432;-2.598;2022-10-17T17:11:38;20.20;93.20
56256;DHT22;57229;51.432;-2.598;2022-10-17T17:14:05;20.10;93.30
56256;DHT22;57229;51.432;-2.598;2022-10-17T17:16:32;20.10;93.50
56256;DHT22;57229;51.432;-2.598;2022-10-17T17:19:00;20.10;93.50
56256;DHT22;57229;51.432;-2.598;2022-10-17T17:21:26;20.00;93.60
56256;DHT22;57229;51.432;-2.598;2022-10-17T17:23:53;20.00;93.60
56256;DHT22;57229;51.432;-2.598;2022-10-17T17:26:21;19.90;93.60
56256;DHT22;57229;51.432;-2.598;2022-10-17T17:28:48;19.90;93.70
56256;DHT22;57229;51.432;-2.598;2022-10-17T17:31:20;19.90;93.90
56256;DHT22;57229;51.432;-2.598;2022-10-17T17:33:50;19.90;94.00
56256;DHT22;57229;51.432;-2.598;2022-10-17T17:36:21;19.80;94.00
56256;DHT22;57229;51.432;-2.598;2022-10-17T17:38:48;19.80;94.10
56256;DHT22;57229;51.432;-2.598;2022-10-17T17:41:17;19.80;94.20
56256;DHT22;57229;51.432;-2.598;2022-10-17T17:43:43;19.70;94.20
56256;DHT22;57229;51.432;-2.598;2022-10-17T17:46:09;19.70;94.20
56256;DHT22;57229;51.432;-2.598;2022-10-17T17:48:39;19.70;94.40
56256;DHT22;57229;51.432;-2.598;2022-10-17T17:51:07;19.70;94.30
56256;DHT22;57229;51.432;-2.598;2022-10-17T17:53:33;19.70;94.40
56256;DHT22;57229;51.432;-2.598;2022-10-17T17:56:03;19.60;94.40
56256;DHT22;57229;51.432;-2.598;2022-10-17T17:58:30;19.60;94.50
56256;DHT22;57229;51.432;-2.598;2022-10-17T18:00:56;19.60;94.50
56256;DHT22;57229;51.432;-2.598;2022-10-17T18:03:22;19.60;94.60
56256;DHT22;57229;51.432;-2.598;2022-10-17T18:05:57;19.60;94.60
56256;DHT22;57229;51.432;-2.598;2022-10-17T18:08:24;19.60;94.60
56256;DHT22;57229;51.432;-2.598;2022-10-17T18:10:51;19.50;94.60